Terminal Aerodrome Forecast
Issued by NWS

Home | Current Version | Previous Version | Graphics & Text | Print | Product List | Glossary On
Versions: 1 2 3 4 5 6 7 8 9 10 11 12 13 14 15 16 17 18 19 20
000
FTUS43 KGRB 060900 AAA
TAFCWA
TAF AMD
KCWA 060940Z 0610/0706 11007KT P6SM SCT015 OVC025
      TEMPO 0610/0612 5SM -SHRA BR BKN015
     FM061700 13009KT P6SM BKN015
     FM062100 13008KT P6SM SCT025
     FM070000 13007KT P6SM SCT070 BKN120
      AMD LTD TO CLD VIS AND WIND TIL 061200=

USA.gov is the U.S. government's official web portal to all federal, state and local government web resources and services.